createdAt,value
2022-08-14T00:01:54.676Z,50.07
2022-08-14T00:04:32.252Z,50.38
2022-08-14T00:07:08.485Z,50.49
2022-08-14T00:09:55.825Z,50.42
2022-08-14T00:12:23.604Z,50.69
2022-08-14T00:14:54.996Z,50.72
2022-08-14T00:17:22.603Z,50.85
2022-08-14T00:19:49.337Z,51.04
2022-08-14T00:22:44.433Z,51.50
2022-08-14T00:25:07.603Z,51.37
2022-08-14T00:27:37.854Z,51.79
2022-08-14T00:30:10.897Z,51.84
2022-08-14T00:32:52.105Z,52.17
2022-08-14T00:36:37.489Z,52.37
2022-08-14T00:38:11.263Z,52.64
2022-08-14T00:40:37.801Z,52.88
2022-08-14T00:43:06.467Z,52.75
2022-08-14T00:45:33.354Z,53.06
2022-08-14T00:48:00.384Z,53.48
2022-08-14T00:50:31.085Z,53.86
2022-08-14T00:53:00.287Z,53.88
2022-08-14T00:55:28.640Z,54.62
2022-08-14T00:58:17.482Z,54.29
2022-08-14T01:00:51.068Z,54.42
2022-08-14T01:03:25.994Z,54.52
2022-08-14T01:05:52.985Z,54.98
2022-08-14T01:08:51.272Z,54.99
2022-08-14T01:11:19.000Z,55.41
2022-08-14T01:13:55.776Z,55.72
2022-08-14T01:16:27.933Z,56.00
2022-08-14T01:19:15.913Z,56.10
2022-08-14T01:21:47.000Z,56.52
2022-08-14T01:24:19.276Z,56.69
2022-08-14T01:26:53.389Z,56.85
2022-08-14T01:29:36.452Z,56.96
2022-08-14T01:32:10.354Z,57.21
2022-08-14T01:35:20.918Z,57.39
2022-08-14T01:37:24.804Z,57.67
2022-08-14T01:39:54.250Z,57.69
2022-08-14T01:42:32.060Z,58.06
2022-08-14T01:45:17.914Z,58.36
2022-08-14T01:47:52.310Z,58.29
2022-08-14T01:50:30.525Z,58.65
2022-08-14T01:53:00.431Z,58.65
2022-08-14T01:55:32.328Z,58.48
2022-08-14T01:58:19.870Z,58.89
2022-08-14T02:00:54.698Z,59.11
2022-08-14T02:03:23.613Z,59.48
2022-08-14T02:05:50.253Z,59.79
2022-08-14T02:08:22.596Z,60.08
2022-08-14T02:11:20.260Z,60.25
2022-08-14T02:13:50.468Z,60.30
2022-08-14T02:16:22.434Z,60.26
2022-08-14T02:18:49.861Z,60.44
2022-08-14T02:21:19.395Z,60.22
2022-08-14T02:23:53.705Z,60.81
2022-08-14T02:26:29.147Z,60.66
2022-08-14T02:29:00.392Z,60.78
2022-08-14T02:31:43.603Z,60.83
2022-08-14T02:34:22.032Z,61.07
2022-08-14T02:37:03.384Z,61.09
2022-08-14T02:39:36.218Z,61.66
2022-08-14T02:42:06.569Z,61.83
2022-08-14T02:44:49.051Z,61.85
2022-08-14T02:47:19.165Z,62.42
2022-08-14T02:49:54.759Z,62.44
2022-08-14T02:52:55.555Z,62.49
2022-08-14T02:55:09.346Z,62.58
2022-08-14T02:57:39.858Z,62.62
2022-08-14T03:00:10.175Z,63.16
2022-08-14T03:02:56.558Z,63.20
2022-08-14T03:05:24.309Z,63.70
2022-08-14T03:07:52.869Z,64.19
2022-08-14T03:10:25.793Z,64.28
2022-08-14T03:13:00.751Z,64.79
2022-08-14T03:15:27.519Z,65.08
2022-08-14T03:17:57.488Z,64.78
2022-08-14T03:20:30.439Z,65.15
2022-08-14T03:23:00.295Z,65.36
2022-08-14T03:25:33.380Z,65.29
2022-08-14T03:28:04.116Z,65.52
2022-08-14T03:30:40.040Z,65.38
2022-08-14T03:33:10.855Z,65.99
2022-08-14T03:36:05.463Z,66.18
2022-08-14T03:39:14.715Z,66.44
2022-08-14T03:41:23.701Z,66.79
2022-08-14T03:43:57.770Z,66.98
2022-08-14T03:46:52.856Z,67.02
2022-08-14T03:49:28.312Z,67.08
2022-08-14T03:51:55.963Z,66.90
2022-08-14T03:54:24.524Z,67.01
2022-08-14T03:56:51.266Z,66.67
2022-08-14T03:59:19.622Z,67.06
2022-08-14T04:01:58.115Z,67.05
2022-08-14T04:04:30.337Z,67.24
2022-08-14T04:06:58.789Z,67.22
2022-08-14T04:09:26.771Z,67.51
2022-08-14T04:11:54.097Z,67.79
2022-08-14T04:14:22.746Z,68.17
2022-08-14T04:16:50.416Z,68.55
2022-08-14T04:19:20.510Z,68.43
2022-08-14T04:22:02.302Z,68.71
2022-08-14T04:24:37.643Z,68.56
2022-08-14T04:27:11.588Z,68.76
2022-08-14T04:29:42.666Z,69.11
2022-08-14T04:32:58.814Z,69.21
2022-08-14T04:35:07.180Z,68.97
2022-08-14T04:37:53.610Z,68.87
2022-08-14T04:40:40.224Z,68.69
2022-08-14T04:43:25.874Z,68.89
2022-08-14T04:45:53.059Z,68.62
2022-08-14T04:48:39.768Z,68.65
2022-08-14T04:51:20.478Z,68.58
2022-08-14T04:53:50.131Z,68.49
2022-08-14T04:56:31.366Z,68.79
2022-08-14T04:59:09.556Z,69.09
2022-08-14T05:01:39.832Z,69.14
2022-08-14T05:04:08.229Z,69.24
2022-08-14T05:06:38.747Z,68.89
2022-08-14T05:09:07.215Z,68.91
2022-08-14T05:11:37.208Z,68.77
2022-08-14T05:14:42.648Z,69.01
2022-08-14T05:16:52.231Z,69.23
2022-08-14T05:19:27.211Z,69.18
2022-08-14T05:22:17.189Z,69.08
2022-08-14T05:24:50.374Z,69.30
2022-08-14T05:27:22.789Z,69.48
2022-08-14T05:29:53.846Z,69.13
2022-08-14T05:32:23.450Z,69.01
2022-08-14T05:34:57.758Z,69.29
2022-08-14T05:37:24.468Z,69.75
2022-08-14T05:39:53.460Z,69.64
2022-08-14T05:42:22.132Z,69.32
2022-08-14T05:44:55.442Z,69.24
2022-08-14T05:47:22.825Z,68.78
2022-08-14T05:49:51.497Z,68.59
2022-08-14T05:52:18.762Z,68.55
2022-08-14T05:54:53.279Z,68.21
2022-08-14T05:57:20.734Z,68.17
2022-08-14T05:59:48.051Z,67.56
2022-08-14T06:02:14.631Z,67.39
2022-08-14T06:04:48.208Z,66.86
2022-08-14T06:07:16.190Z,66.78
2022-08-14T06:09:43.447Z,66.84
2022-08-14T06:12:55.340Z,66.16
2022-08-14T06:15:08.045Z,66.08
2022-08-14T06:17:55.862Z,65.91
2022-08-14T06:20:28.172Z,66.08
2022-08-14T06:22:55.548Z,65.17
2022-08-14T06:25:23.089Z,64.51
2022-08-14T06:27:50.052Z,62.64
2022-08-14T06:30:19.643Z,61.43
2022-08-14T06:32:47.222Z,59.77
2022-08-14T06:35:23.650Z,58.27
2022-08-14T06:37:58.900Z,57.04
2022-08-14T06:40:40.288Z,55.19
2022-08-14T06:43:11.675Z,54.38
2022-08-14T06:45:44.181Z,54.06
2022-08-14T06:48:24.031Z,52.91
2022-08-14T06:50:53.845Z,54.09
2022-08-14T06:53:21.334Z,52.20
2022-08-14T06:55:58.371Z,51.58
2022-08-14T06:58:31.255Z,51.81
2022-08-14T07:01:23.111Z,52.58
2022-08-14T07:04:22.636Z,52.92
2022-08-14T07:06:50.380Z,52.04
2022-08-14T07:09:23.031Z,51.49
2022-08-14T07:11:50.731Z,50.06
2022-08-14T07:14:17.687Z,49.73
2022-08-14T07:16:44.462Z,50.58
2022-08-14T07:19:11.436Z,49.28
2022-08-14T07:21:39.019Z,48.82
2022-08-14T07:24:05.901Z,48.86
2022-08-14T07:26:36.603Z,47.46
2022-08-14T07:29:05.749Z,46.37
2022-08-14T07:31:33.501Z,45.85
2022-08-14T07:34:00.221Z,46.35
2022-08-14T07:36:31.254Z,45.32
2022-08-14T07:39:03.181Z,45.37
2022-08-14T07:41:33.590Z,45.49
2022-08-14T07:44:28.631Z,45.14
2022-08-14T07:46:47.820Z,44.61
2022-08-14T07:49:17.617Z,44.34
2022-08-14T07:51:45.395Z,44.10
2022-08-14T07:54:12.541Z,44.29
2022-08-14T07:56:47.716Z,43.96
2022-08-14T07:59:18.563Z,42.94
2022-08-14T08:01:48.200Z,42.32
2022-08-14T08:04:27.086Z,42.25
2022-08-14T08:06:55.886Z,42.69
2022-08-14T08:09:31.943Z,42.25
2022-08-14T08:12:09.214Z,43.17
2022-08-14T08:14:56.675Z,44.76
2022-08-14T08:17:34.480Z,44.57
2022-08-14T08:20:01.689Z,43.12
2022-08-14T08:22:28.246Z,42.99
2022-08-14T08:24:59.349Z,42.41
2022-08-14T08:27:27.420Z,42.71
2022-08-14T08:30:04.568Z,42.06
2022-08-14T08:32:42.065Z,41.89
2022-08-14T08:35:46.372Z,41.70
2022-08-14T08:39:18.226Z,41.17
2022-08-14T08:41:05.892Z,41.47
2022-08-14T08:43:39.378Z,40.85
2022-08-14T08:46:23.343Z,41.12
2022-08-14T08:51:34.225Z,40.75
2022-08-14T08:54:20.027Z,40.18
2022-08-14T08:56:53.212Z,39.62
2022-08-14T08:59:34.055Z,39.86
2022-08-14T09:02:04.975Z,39.53
2022-08-14T09:04:45.292Z,39.07
2022-08-14T09:07:25.630Z,37.87
2022-08-14T09:09:58.519Z,38.58
2022-08-14T09:12:27.032Z,38.97
2022-08-14T09:14:55.767Z,38.27
2022-08-14T09:17:26.031Z,38.73
2022-08-14T09:19:53.799Z,39.33
2022-08-14T09:22:35.509Z,39.64
2022-08-14T09:25:06.903Z,39.32
2022-08-14T09:27:35.922Z,39.63
2022-08-14T09:30:31.692Z,40.42
2022-08-14T09:33:12.747Z,40.71
2022-08-14T09:35:56.673Z,40.76
2022-08-14T09:38:46.440Z,41.04
2022-08-14T09:42:17.799Z,40.85
2022-08-14T09:44:49.835Z,40.64
2022-08-14T09:47:17.546Z,40.96
2022-08-14T09:49:53.320Z,41.04
2022-08-14T09:52:33.267Z,40.00
2022-08-14T09:55:01.088Z,40.35
2022-08-14T09:57:31.370Z,40.41
2022-08-14T09:59:58.927Z,40.16
2022-08-14T10:02:34.429Z,40.34
2022-08-14T10:05:03.377Z,40.15
2022-08-14T10:07:37.512Z,39.25
2022-08-14T10:10:22.956Z,39.13
2022-08-14T10:12:53.208Z,39.35
2022-08-14T10:15:25.290Z,39.46
2022-08-14T10:18:09.376Z,38.60
2022-08-14T10:20:51.670Z,38.36
2022-08-14T10:23:20.821Z,37.62
2022-08-14T10:25:51.901Z,37.40
2022-08-14T10:28:51.429Z,36.48
2022-08-14T10:31:29.572Z,35.56
2022-08-14T10:34:12.946Z,35.75
2022-08-14T10:36:50.240Z,36.60
2022-08-14T10:39:28.979Z,36.22
2022-08-14T10:42:22.440Z,35.36
2022-08-14T10:44:52.789Z,34.64
2022-08-14T10:47:41.429Z,35.38
2022-08-14T10:50:07.820Z,35.47
2022-08-14T10:52:42.447Z,35.50
2022-08-14T10:55:15.333Z,35.16
2022-08-14T10:58:11.596Z,34.27
2022-08-14T11:00:47.317Z,34.44
2022-08-14T11:03:15.741Z,34.62
2022-08-14T11:05:54.924Z,34.45
2022-08-14T11:08:34.094Z,34.06
2022-08-14T11:11:04.077Z,34.01
2022-08-14T11:13:31.762Z,33.92
2022-08-14T11:16:01.282Z,33.85
2022-08-14T11:18:36.044Z,33.78
2022-08-14T11:21:08.221Z,33.13
2022-08-14T11:23:39.825Z,32.99
2022-08-14T11:26:10.183Z,33.59
2022-08-14T11:28:47.683Z,31.46
2022-08-14T11:31:19.562Z,30.05
2022-08-14T11:33:51.300Z,29.75
2022-08-14T11:36:22.605Z,29.19
2022-08-14T11:38:49.581Z,30.13
2022-08-14T11:41:18.211Z,28.94
2022-08-14T11:43:55.909Z,28.78
2022-08-14T11:46:30.479Z,28.74
2022-08-14T11:49:05.843Z,29.08
2022-08-14T11:51:36.437Z,28.42
2022-08-14T11:54:20.131Z,28.30
2022-08-14T11:56:50.741Z,28.08
2022-08-14T11:59:19.785Z,27.74
2022-08-14T12:01:54.945Z,27.52
2022-08-14T12:04:32.020Z,27.97
2022-08-14T12:07:01.257Z,27.68
2022-08-14T12:09:36.192Z,26.82
2022-08-14T12:12:16.206Z,27.41
2022-08-14T12:15:01.567Z,26.82
2022-08-14T12:17:38.102Z,27.05
2022-08-14T12:20:15.198Z,27.54
2022-08-14T12:22:52.356Z,27.01
2022-08-14T12:25:24.566Z,27.36
2022-08-14T12:27:58.824Z,26.87
2022-08-14T12:30:45.113Z,26.46
2022-08-14T12:33:33.771Z,25.79
2022-08-14T12:36:06.124Z,25.33
2022-08-14T12:38:37.500Z,25.83
2022-08-14T12:41:10.386Z,25.22
2022-08-14T12:43:51.792Z,25.84
2022-08-14T12:46:27.116Z,25.92
2022-08-14T12:48:57.069Z,24.93
2022-08-14T12:51:28.178Z,25.12
2022-08-14T12:53:59.207Z,25.10
2022-08-14T12:56:33.928Z,25.34
2022-08-14T12:59:01.689Z,25.65
2022-08-14T13:01:56.785Z,25.39
2022-08-14T13:04:18.779Z,25.32
2022-08-14T13:06:50.746Z,25.54
2022-08-14T13:09:19.861Z,25.48
2022-08-14T13:11:59.011Z,26.21
2022-08-14T13:14:41.803Z,26.12
2022-08-14T13:17:10.960Z,25.56
2022-08-14T13:19:40.654Z,25.67
2022-08-14T13:22:09.883Z,25.85
2022-08-14T13:24:47.947Z,25.45
2022-08-14T13:27:18.753Z,25.69
2022-08-14T13:29:47.414Z,25.73
2022-08-14T13:32:15.186Z,25.85
2022-08-14T13:34:46.085Z,25.42
2022-08-14T13:37:14.952Z,25.40
2022-08-14T13:39:53.710Z,25.34
2022-08-14T13:42:26.379Z,26.21
2022-08-14T13:44:58.353Z,24.99
2022-08-14T13:47:30.581Z,25.15
2022-08-14T13:50:00.545Z,24.85
2022-08-14T13:52:52.396Z,24.96
2022-08-14T13:55:28.633Z,25.01
2022-08-14T13:58:03.233Z,25.41
2022-08-14T14:00:52.887Z,24.96
2022-08-14T14:03:23.009Z,24.96
2022-08-14T14:05:54.384Z,25.16
2022-08-14T14:08:46.119Z,25.47
2022-08-14T14:11:11.012Z,25.21
2022-08-14T14:13:44.760Z,25.54
2022-08-14T14:16:15.103Z,26.27
2022-08-14T14:18:43.884Z,25.59
2022-08-14T14:21:13.972Z,26.11
2022-08-14T14:23:42.898Z,26.87
2022-08-14T14:26:14.037Z,26.99
2022-08-14T14:28:42.297Z,26.21
2022-08-14T14:31:11.640Z,26.22
2022-08-14T14:33:48.887Z,26.01
2022-08-14T14:36:26.602Z,25.80
2022-08-14T14:38:59.468Z,26.42
2022-08-14T14:41:37.741Z,26.59
2022-08-14T14:44:09.117Z,26.22
2022-08-14T14:46:38.421Z,25.82
2022-08-14T14:49:14.232Z,26.03
2022-08-14T14:51:46.929Z,25.62
2022-08-14T14:54:19.715Z,26.02
2022-08-14T14:57:00.303Z,26.29
2022-08-14T14:59:30.430Z,25.86
2022-08-14T15:02:07.751Z,26.39
2022-08-14T15:04:37.853Z,26.49
2022-08-14T15:07:05.183Z,26.39
2022-08-14T15:09:34.229Z,26.28
2022-08-14T15:12:02.623Z,25.75
2022-08-14T15:14:55.589Z,26.07
2022-08-14T15:17:24.298Z,26.58
2022-08-14T15:19:56.187Z,25.78
2022-08-14T15:22:25.321Z,25.95
2022-08-14T15:24:52.057Z,26.05
2022-08-14T15:27:26.234Z,25.72
2022-08-14T15:29:53.623Z,25.82
2022-08-14T15:32:23.138Z,26.09
2022-08-14T15:34:52.626Z,26.24
2022-08-14T15:37:22.772Z,26.62
2022-08-14T15:39:50.401Z,26.30
2022-08-14T15:42:20.049Z,26.13
2022-08-14T15:44:57.375Z,26.62
2022-08-14T15:47:28.079Z,26.25
2022-08-14T15:49:58.983Z,26.35
2022-08-14T15:52:32.556Z,25.96
2022-08-14T15:55:13.146Z,26.39
2022-08-14T15:58:02.128Z,26.85
2022-08-14T16:00:51.739Z,26.94
2022-08-14T16:03:26.977Z,26.58
2022-08-14T16:06:01.937Z,26.77
2022-08-14T16:08:30.308Z,27.17
2022-08-14T16:10:59.804Z,26.60
2022-08-14T16:13:39.177Z,26.71
2022-08-14T16:16:47.771Z,27.09
2022-08-14T16:18:58.162Z,26.67
2022-08-14T16:21:29.551Z,27.38
2022-08-14T16:24:00.414Z,27.17
2022-08-14T16:26:29.219Z,27.58
2022-08-14T16:29:04.470Z,27.45
2022-08-14T16:31:36.290Z,27.75
2022-08-14T16:34:44.118Z,28.05
2022-08-14T16:36:53.221Z,27.75
2022-08-14T16:39:22.645Z,27.65
2022-08-14T16:41:52.304Z,27.28
2022-08-14T16:44:33.593Z,27.20
2022-08-14T16:47:03.903Z,27.62
2022-08-14T16:50:02.548Z,28.09
2022-08-14T16:52:25.483Z,28.08
2022-08-14T16:55:11.077Z,27.90
2022-08-14T16:57:55.093Z,28.53
2022-08-14T17:00:43.727Z,27.56
2022-08-14T17:03:12.504Z,28.35
2022-08-14T17:05:41.796Z,27.95
2022-08-14T17:08:32.450Z,27.99
2022-08-14T17:11:04.600Z,28.48
2022-08-14T17:13:48.040Z,28.52
2022-08-14T17:16:24.692Z,28.70
2022-08-14T17:19:03.794Z,28.27
2022-08-14T17:21:37.661Z,28.44
2022-08-14T17:24:57.980Z,28.84
2022-08-14T17:26:55.155Z,28.59
2022-08-14T17:29:29.384Z,28.68
2022-08-14T17:32:03.305Z,28.92
2022-08-14T17:34:51.069Z,29.08
2022-08-14T17:37:45.174Z,29.30
2022-08-14T17:40:23.762Z,29.38
2022-08-14T17:42:55.785Z,28.97
2022-08-14T17:45:43.079Z,29.78
2022-08-14T17:49:13.837Z,29.65
2022-08-14T17:51:14.240Z,29.46
2022-08-14T17:53:52.860Z,29.59
2022-08-14T17:56:20.740Z,29.64
2022-08-14T17:58:49.444Z,29.84
2022-08-14T18:01:23.479Z,30.02
2022-08-14T18:03:53.726Z,30.37
2022-08-14T18:06:40.081Z,30.53
2022-08-14T18:09:25.324Z,30.15
2022-08-14T18:11:55.299Z,30.48
2022-08-14T18:14:31.884Z,30.63
2022-08-14T18:17:00.347Z,31.07
2022-08-14T18:19:29.837Z,30.91
2022-08-14T18:21:58.580Z,31.26
2022-08-14T18:24:29.624Z,31.64
2022-08-14T18:27:11.823Z,32.11
2022-08-14T18:29:55.274Z,32.31
2022-08-14T18:32:31.522Z,32.84
2022-08-14T18:35:11.341Z,32.66
2022-08-14T18:37:41.356Z,32.72
2022-08-14T18:40:20.118Z,33.31
2022-08-14T18:42:47.983Z,33.88
2022-08-14T18:45:28.827Z,34.20
2022-08-14T18:48:19.219Z,34.46
2022-08-14T18:50:55.927Z,34.90
2022-08-14T18:53:25.216Z,34.71
2022-08-14T18:56:02.114Z,34.80
2022-08-14T18:59:02.638Z,35.11
2022-08-14T19:01:30.068Z,35.48
2022-08-14T19:03:59.102Z,35.96
2022-08-14T19:06:37.531Z,36.11
2022-08-14T19:09:05.231Z,36.18
2022-08-14T19:11:32.385Z,36.41
2022-08-14T19:14:05.081Z,37.25
2022-08-14T19:16:34.284Z,36.88
2022-08-14T19:19:04.075Z,37.04
2022-08-14T19:21:35.037Z,37.38
2022-08-14T19:24:27.619Z,38.68
2022-08-14T19:27:19.562Z,44.05
2022-08-14T19:29:51.273Z,43.24
2022-08-14T19:32:36.654Z,44.82
2022-08-14T19:35:16.983Z,43.90
2022-08-14T19:37:52.778Z,44.37
2022-08-14T19:40:41.872Z,46.99
2022-08-14T19:43:09.885Z,45.44
2022-08-14T19:45:38.331Z,45.38
2022-08-14T19:48:12.690Z,46.12
2022-08-14T19:50:41.097Z,45.52
2022-08-14T19:53:17.220Z,45.67
2022-08-14T19:55:56.992Z,45.84
2022-08-14T19:58:54.560Z,45.83
2022-08-14T20:01:36.735Z,45.15
2022-08-14T20:04:46.195Z,45.97
2022-08-14T20:06:57.626Z,46.37
2022-08-14T20:11:03.750Z,45.40
2022-08-14T20:12:28.415Z,45.84
2022-08-14T20:15:15.468Z,46.00
2022-08-14T20:17:52.754Z,46.33
2022-08-14T20:20:31.846Z,45.92
2022-08-14T20:23:10.873Z,46.77
2022-08-14T20:25:45.231Z,46.34
2022-08-14T20:28:30.693Z,45.21
2022-08-14T20:31:18.126Z,44.60
2022-08-14T20:34:03.475Z,43.95
2022-08-14T20:36:30.183Z,44.07
2022-08-14T20:38:58.149Z,43.43
2022-08-14T20:41:25.458Z,43.56
2022-08-14T20:44:11.866Z,42.96
2022-08-14T20:46:39.534Z,43.15
2022-08-14T20:49:16.202Z,42.92
2022-08-14T20:51:55.029Z,42.24
2022-08-14T20:54:36.289Z,42.11
2022-08-14T20:57:14.095Z,42.54
2022-08-14T20:59:46.985Z,42.73
2022-08-14T21:02:46.729Z,42.84
2022-08-14T21:05:21.213Z,42.96
2022-08-14T21:07:50.761Z,42.98
2022-08-14T21:10:33.073Z,44.00
2022-08-14T21:14:09.121Z,43.55
2022-08-14T21:15:57.672Z,43.52
2022-08-14T21:18:29.452Z,43.27
2022-08-14T21:20:57.547Z,43.54
2022-08-14T21:23:24.565Z,43.30
2022-08-14T21:25:59.636Z,44.15
2022-08-14T21:28:30.091Z,44.40
2022-08-14T21:30:57.805Z,44.27
2022-08-14T21:33:25.451Z,44.71
2022-08-14T21:35:54.761Z,43.90
2022-08-14T21:38:34.000Z,43.77
2022-08-14T21:41:41.258Z,44.33
2022-08-14T21:44:17.071Z,44.22
2022-08-14T21:46:47.607Z,43.93
2022-08-14T21:49:17.917Z,44.01
2022-08-14T21:51:53.674Z,44.86
2022-08-14T21:54:32.231Z,45.22
2022-08-14T21:57:17.324Z,45.19
2022-08-14T21:59:45.300Z,45.60
2022-08-14T22:02:33.437Z,45.66
2022-08-14T22:04:58.954Z,45.65
2022-08-14T22:07:29.359Z,45.42
2022-08-14T22:12:57.180Z,46.04
2022-08-14T22:15:13.329Z,45.95
2022-08-14T22:17:44.405Z,46.00
2022-08-14T22:20:12.442Z,45.59
2022-08-14T22:22:43.653Z,45.90
2022-08-14T22:25:16.119Z,45.56
2022-08-14T22:27:56.167Z,45.40
2022-08-14T22:30:23.631Z,45.56
2022-08-14T22:32:56.552Z,45.61
2022-08-14T22:35:25.012Z,45.57
2022-08-14T22:38:32.615Z,45.68
2022-08-14T22:41:14.884Z,45.66
2022-08-14T22:43:28.130Z,46.29
2022-08-14T22:46:02.043Z,46.09
2022-08-14T22:48:29.622Z,46.05
2022-08-14T22:50:56.511Z,46.70
2022-08-14T22:53:24.179Z,46.60
2022-08-14T22:55:56.699Z,46.82
2022-08-14T22:58:31.557Z,46.66
2022-08-14T23:01:02.422Z,46.74
2022-08-14T23:03:34.089Z,46.39
2022-08-14T23:06:02.279Z,46.49
2022-08-14T23:09:00.257Z,46.56
2022-08-14T23:11:15.866Z,46.72
2022-08-14T23:13:43.372Z,46.52
2022-08-14T23:16:19.837Z,46.24
2022-08-14T23:18:53.993Z,46.36
2022-08-14T23:21:24.671Z,46.09
2022-08-14T23:23:54.862Z,45.74
2022-08-14T23:26:49.847Z,45.61
2022-08-14T23:29:09.117Z,45.46
2022-08-14T23:31:39.353Z,45.64
2022-08-14T23:34:08.154Z,45.46
2022-08-14T23:36:52.904Z,45.41
2022-08-14T23:39:32.885Z,45.53
2022-08-14T23:42:08.504Z,45.70
2022-08-14T23:44:37.701Z,45.44
2022-08-14T23:47:11.682Z,45.34
2022-08-14T23:50:00.567Z,44.99
2022-08-14T23:52:57.379Z,45.09
2022-08-14T23:55:17.426Z,45.27
2022-08-14T23:57:57.624Z,45.02
